Flight Track Log - Related Links

Times and Time Zones

All times are in EDT time to prevent confusion due to time zone crossing. See the JAL335 flight status page for this flight to view local times or setup timezone preferences in your user account.

Time Position Orientation Groundspeed Altitude Reporting Facility
EDT Latitude Longitude Course Direction KTS MPH feet Rate Location/Type
Mon 07:29:00 AM 35.4901 139.4132 258° West  Level Estimated
Mon 07:30:00 AM 35.4691 139.2911 258° West  Level Estimated
Mon 07:31:00 AM 35.4480 139.1691 258° West  Level Estimated
Mon 07:32:00 AM 35.4276 139.0517 258° West  Level Estimated
Mon 07:33:00 AM 35.4070 138.9344 258° West  Level Estimated
Mon 07:34:00 AM 35.3863 138.8171 258° West  Level Estimated
Mon 07:35:00 AM 35.3656 138.6999 258° West  Level Estimated
Mon 07:36:00 AM 35.3447 138.5827 258° West  Level Estimated
Mon 07:37:00 AM 35.3237 138.4657 258° West  Level Estimated
Mon 07:38:00 AM 35.3026 138.3486 258° West  Level Estimated
Mon 07:39:00 AM 35.2813 138.2316 258° West  Level Estimated
Mon 07:40:00 AM 35.2600 138.1147 257° West  Level Estimated
Mon 07:41:00 AM 35.2386 137.9978 257° West  Level Estimated
Mon 07:42:00 AM 35.2170 137.8810 257° West  Level Estimated
Mon 07:43:00 AM 35.1953 137.7643 257° West  Level Estimated
Mon 07:44:00 AM 35.1735 137.6476 257° West  Level Estimated
Mon 07:45:00 AM 35.1516 137.5310 257° West  Level Estimated
Mon 07:46:00 AM 35.1296 137.4145 257° West  Level Estimated
Mon 07:47:00 AM 35.1075 137.2980 257° West  Level Estimated
Mon 07:48:00 AM 35.0853 137.1816 257° West  Level Estimated
Mon 07:49:00 AM 35.0629 137.0652 257° West  Level Estimated
Mon 07:50:00 AM 35.0405 136.9489 257° West  Level Estimated
Mon 07:51:00 AM 35.0179 136.8327 257° West  Level Estimated
Mon 07:52:00 AM 34.9952 136.7166 257° West  Level Estimated
Mon 07:53:00 AM 34.9724 136.6005 257° West  Level Estimated
Mon 07:54:00 AM 34.9495 136.4844 256° West  Level Estimated
Mon 07:55:00 AM 34.9265 136.3685 256° West  Level Estimated
Mon 07:56:00 AM 34.9034 136.2526 256° West  Level Estimated
Mon 07:57:00 AM 34.8802 136.1367 256° West  Level Estimated
Mon 07:58:00 AM 34.8568 136.0210 256° West  Level Estimated
Mon 07:59:00 AM 34.8334 135.9052 256° West  Level Estimated
Mon 08:00:00 AM 34.8098 135.7896 256° West  Level Estimated
Mon 08:01:00 AM 34.7862 135.6740 256° West  Level Estimated
Mon 08:02:00 AM 34.7624 135.5585 256° West  Level Estimated
Mon 08:03:00 AM 34.7385 135.4431 256° West  Level Estimated
Mon 08:04:00 AM 34.7145 135.3277 256° West  Level Estimated
Mon 08:05:00 AM 34.6904 135.2124 256° West  Level Estimated
Mon 08:06:00 AM 34.6662 135.0972 256° West  Level Estimated
Mon 08:07:00 AM 34.6419 134.9820 256° West  Level Estimated
Mon 08:08:00 AM 34.6174 134.8669 256° West  Level Estimated
Mon 08:09:00 AM 34.5929 134.7518 256° West  Level Estimated
Mon 08:10:00 AM 34.5663 134.6277 255° West  Level Estimated
Mon 08:11:00 AM 34.5395 134.5036 255° West  Level Estimated
Mon 08:12:00 AM 34.5127 134.3796 255° West  Level Estimated
Mon 08:13:00 AM 34.4857 134.2557 255° West  Level Estimated
Mon 08:14:00 AM 34.4585 134.1319 255° West  Level Estimated
Mon 08:15:00 AM 34.4313 134.0081 255° West  Level Estimated
Mon 08:16:00 AM 34.4039 133.8844 255° West  Level Estimated
Mon 08:17:00 AM 34.3764 133.7608 255° West  Level Estimated
Mon 08:18:00 AM 34.3488 133.6373 255° West  Level Estimated
Mon 08:19:00 AM 34.3211 133.5139 255° West  Level Estimated
Mon 08:20:00 AM 34.2932 133.3905 255° West  Level Estimated
Mon 08:21:00 AM 34.2652 133.2672 255° West  Level Estimated
Mon 08:22:00 AM 34.2371 133.1440 255° West  Level Estimated
Mon 08:23:00 AM 34.2089 133.0209 255° West  Level Estimated
Mon 08:24:00 AM 34.1805 132.8979 254° West  Level Estimated
Mon 08:25:00 AM 34.1520 132.7749 254° West  Level Estimated
Mon 08:26:00 AM 34.1234 132.6521 254° West  Level Estimated
Mon 08:27:00 AM 34.0947 132.5293 254° West  Level Estimated
Mon 08:28:00 AM 34.0658 132.4066 254° West  Level Estimated
Mon 08:29:00 AM 34.0369 132.2840 254° West  Level Estimated
Mon 08:30:00 AM 34.0078 132.1615 254° West  Level Estimated
Mon 08:31:00 AM 33.9786 132.0390 254° West  Level Estimated
Mon 08:32:00 AM 33.9492 131.9167 254° West  Level Estimated
Mon 08:33:00 AM 33.9198 131.7944 254° West  Level Estimated
Mon 08:34:00 AM 33.8902 131.6722 254° West  Level Estimated
Mon 08:35:00 AM 33.8605 131.5501 254° West  Level Estimated
Mon 08:36:00 AM 33.8303 131.4265 254° West  Level Estimated
Mon 08:37:00 AM 33.7999 131.3029 254° West  Level Estimated
Mon 08:38:00 AM 33.7695 131.1794 254° West  Level Estimated
Mon 08:39:00 AM 33.7389 131.0560 253° West  Level Estimated
Mon 08:40:00 AM 33.7082 130.9326 253° West  Level Estimated
Mon 08:41:00 AM 33.6773 130.8094 253° West  Level Estimated
Mon 08:42:00 AM 33.6464 130.6863 253° West  Level Estimated
Mon 08:43:00 AM 33.6153 130.5632 253° West  Level Estimated
Mon 08:44:00 AM 33.5866 130.4502 253° West  Level Estimated
Mon 08:45:00 AM 33.5866 130.4502 248° West  Level Estimated
Mon 08:46:00 AM 33.5866 130.4502 248° West  Level Estimated
Mon 08:47:00 AM 33.5866 130.4502 248° West  Level Estimated
Mon 08:48:00 AM 33.5866 130.4502 248° West  Level Estimated
Mon 08:49:00 AM 33.5866 130.4502 248° West  Level Estimated

Login

Don't have an account? Register now (free) for customized features, flight alerts, and more!